sensor_id;sensor_type;location;lat;lon;timestamp;P1;durP1;ratioP1;P2;durP2;ratioP2
41755;SDS011;27435;48.480;9.258;2023-01-20T00:02:16;15.23;;;8.33;;
41755;SDS011;27435;48.480;9.258;2023-01-20T00:04:42;14.93;;;5.83;;
41755;SDS011;27435;48.480;9.258;2023-01-20T00:07:07;17.83;;;5.57;;
41755;SDS011;27435;48.480;9.258;2023-01-20T00:09:33;20.30;;;7.53;;
41755;SDS011;27435;48.480;9.258;2023-01-20T00:11:59;23.63;;;10.90;;
41755;SDS011;27435;48.480;9.258;2023-01-20T00:14:24;16.33;;;8.40;;
41755;SDS011;27435;48.480;9.258;2023-01-20T00:16:51;24.10;;;10.20;;
41755;SDS011;27435;48.480;9.258;2023-01-20T00:19:17;22.07;;;9.87;;
41755;SDS011;27435;48.480;9.258;2023-01-20T00:21:43;22.27;;;9.37;;
41755;SDS011;27435;48.480;9.258;2023-01-20T00:24:08;20.50;;;10.03;;
41755;SDS011;27435;48.480;9.258;2023-01-20T00:26:34;20.33;;;9.83;;
41755;SDS011;27435;48.480;9.258;2023-01-20T00:29:00;22.40;;;10.37;;
41755;SDS011;27435;48.480;9.258;2023-01-20T00:31:26;25.83;;;10.03;;
41755;SDS011;27435;48.480;9.258;2023-01-20T00:33:54;19.47;;;9.87;;
41755;SDS011;27435;48.480;9.258;2023-01-20T00:36:22;23.40;;;9.93;;
41755;SDS011;27435;48.480;9.258;2023-01-20T00:38:49;20.50;;;9.67;;
41755;SDS011;27435;48.480;9.258;2023-01-20T00:41:15;20.97;;;10.63;;
41755;SDS011;27435;48.480;9.258;2023-01-20T00:43:42;20.47;;;9.33;;
41755;SDS011;27435;48.480;9.258;2023-01-20T00:46:08;20.47;;;9.43;;
41755;SDS011;27435;48.480;9.258;2023-01-20T00:48:35;19.70;;;9.13;;
41755;SDS011;27435;48.480;9.258;2023-01-20T00:51:01;23.47;;;10.93;;
41755;SDS011;27435;48.480;9.258;2023-01-20T00:53:27;21.53;;;9.53;;
41755;SDS011;27435;48.480;9.258;2023-01-20T00:55:53;24.27;;;9.07;;
41755;SDS011;27435;48.480;9.258;2023-01-20T00:58:18;24.23;;;10.20;;
41755;SDS011;27435;48.480;9.258;2023-01-20T01:00:48;19.57;;;9.50;;
41755;SDS011;27435;48.480;9.258;2023-01-20T01:03:15;23.33;;;11.57;;
41755;SDS011;27435;48.480;9.258;2023-01-20T01:05:41;23.20;;;10.53;;
41755;SDS011;27435;48.480;9.258;2023-01-20T01:08:07;20.50;;;9.33;;
41755;SDS011;27435;48.480;9.258;2023-01-20T01:10:33;22.33;;;10.13;;
41755;SDS011;27435;48.480;9.258;2023-01-20T01:12:59;18.37;;;9.30;;
41755;SDS011;27435;48.480;9.258;2023-01-20T01:15:26;18.13;;;8.90;;
41755;SDS011;27435;48.480;9.258;2023-01-20T01:17:52;20.17;;;9.40;;
41755;SDS011;27435;48.480;9.258;2023-01-20T01:20:18;21.90;;;9.97;;
41755;SDS011;27435;48.480;9.258;2023-01-20T01:22:44;19.97;;;9.07;;
41755;SDS011;27435;48.480;9.258;2023-01-20T01:25:09;17.93;;;9.07;;
41755;SDS011;27435;48.480;9.258;2023-01-20T01:27:35;17.37;;;8.53;;
41755;SDS011;27435;48.480;9.258;2023-01-20T01:30:01;23.80;;;9.63;;
41755;SDS011;27435;48.480;9.258;2023-01-20T01:32:27;20.83;;;8.70;;
41755;SDS011;27435;48.480;9.258;2023-01-20T01:34:52;18.50;;;8.77;;
41755;SDS011;27435;48.480;9.258;2023-01-20T01:37:18;20.93;;;8.27;;
41755;SDS011;27435;48.480;9.258;2023-01-20T01:39:44;15.20;;;7.23;;
41755;SDS011;27435;48.480;9.258;2023-01-20T01:42:14;22.03;;;8.50;;
41755;SDS011;27435;48.480;9.258;2023-01-20T01:47:47;20.57;;;8.00;;
41755;SDS011;27435;48.480;9.258;2023-01-20T01:50:18;22.43;;;8.47;;
41755;SDS011;27435;48.480;9.258;2023-01-20T01:52:47;22.23;;;9.10;;
41755;SDS011;27435;48.480;9.258;2023-01-20T01:55:14;17.87;;;7.80;;
41755;SDS011;27435;48.480;9.258;2023-01-20T01:57:41;16.80;;;7.87;;
41755;SDS011;27435;48.480;9.258;2023-01-20T02:00:07;21.67;;;8.87;;
41755;SDS011;27435;48.480;9.258;2023-01-20T02:02:33;19.70;;;9.07;;
41755;SDS011;27435;48.480;9.258;2023-01-20T02:05:00;19.33;;;8.07;;
41755;SDS011;27435;48.480;9.258;2023-01-20T02:07:26;14.23;;;7.17;;
41755;SDS011;27435;48.480;9.258;2023-01-20T02:09:52;18.37;;;8.00;;
41755;SDS011;27435;48.480;9.258;2023-01-20T02:12:17;18.47;;;8.10;;
41755;SDS011;27435;48.480;9.258;2023-01-20T02:14:49;15.57;;;7.10;;
41755;SDS011;27435;48.480;9.258;2023-01-20T02:23:10;15.13;;;7.50;;
41755;SDS011;27435;48.480;9.258;2023-01-20T02:34:28;14.40;;;6.50;;
41755;SDS011;27435;48.480;9.258;2023-01-20T02:37:11;15.63;;;6.85;;
41755;SDS011;27435;48.480;9.258;2023-01-20T02:42:15;15.80;;;7.37;;
41755;SDS011;27435;48.480;9.258;2023-01-20T02:44:50;16.13;;;7.60;;
41755;SDS011;27435;48.480;9.258;2023-01-20T02:50:08;13.97;;;7.63;;
41755;SDS011;27435;48.480;9.258;2023-01-20T02:52:41;16.40;;;7.17;;
41755;SDS011;27435;48.480;9.258;2023-01-20T02:58:00;18.17;;;6.67;;
41755;SDS011;27435;48.480;9.258;2023-01-20T03:00:31;17.67;;;8.38;;
41755;SDS011;27435;48.480;9.258;2023-01-20T03:03:06;18.83;;;7.70;;
41755;SDS011;27435;48.480;9.258;2023-01-20T03:05:38;14.47;;;6.70;;
41755;SDS011;27435;48.480;9.258;2023-01-20T03:08:09;16.03;;;7.30;;
41755;SDS011;27435;48.480;9.258;2023-01-20T03:10:37;14.93;;;7.57;;
41755;SDS011;27435;48.480;9.258;2023-01-20T03:13:05;16.53;;;7.53;;
41755;SDS011;27435;48.480;9.258;2023-01-20T03:16:03;15.73;;;7.27;;
41755;SDS011;27435;48.480;9.258;2023-01-20T03:18:34;15.03;;;7.17;;
41755;SDS011;27435;48.480;9.258;2023-01-20T03:21:01;15.60;;;6.77;;
41755;SDS011;27435;48.480;9.258;2023-01-20T03:23:29;19.83;;;8.17;;
41755;SDS011;27435;48.480;9.258;2023-01-20T03:25:58;14.77;;;6.47;;
41755;SDS011;27435;48.480;9.258;2023-01-20T03:28:27;15.50;;;7.23;;
41755;SDS011;27435;48.480;9.258;2023-01-20T03:30:53;15.03;;;7.10;;
41755;SDS011;27435;48.480;9.258;2023-01-20T03:33:20;12.00;;;6.43;;
41755;SDS011;27435;48.480;9.258;2023-01-20T03:35:46;12.43;;;6.83;;
41755;SDS011;27435;48.480;9.258;2023-01-20T03:38:13;14.23;;;6.00;;
41755;SDS011;27435;48.480;9.258;2023-01-20T03:40:45;16.10;;;6.00;;
41755;SDS011;27435;48.480;9.258;2023-01-20T03:43:38;14.40;;;7.03;;
41755;SDS011;27435;48.480;9.258;2023-01-20T03:46:23;16.13;;;6.70;;
41755;SDS011;27435;48.480;9.258;2023-01-20T03:54:04;14.70;;;6.67;;
41755;SDS011;27435;48.480;9.258;2023-01-20T03:56:44;17.30;;;7.97;;
41755;SDS011;27435;48.480;9.258;2023-01-20T03:59:29;20.03;;;9.83;;
41755;SDS011;27435;48.480;9.258;2023-01-20T04:01:59;16.83;;;8.73;;
41755;SDS011;27435;48.480;9.258;2023-01-20T04:04:28;19.27;;;8.00;;
41755;SDS011;27435;48.480;9.258;2023-01-20T04:06:57;15.13;;;7.23;;
41755;SDS011;27435;48.480;9.258;2023-01-20T04:09:25;13.13;;;6.50;;
41755;SDS011;27435;48.480;9.258;2023-01-20T04:11:54;17.80;;;7.10;;
41755;SDS011;27435;48.480;9.258;2023-01-20T04:14:20;12.53;;;7.07;;
41755;SDS011;27435;48.480;9.258;2023-01-20T04:16:52;12.67;;;6.60;;
41755;SDS011;27435;48.480;9.258;2023-01-20T04:19:20;13.70;;;6.50;;
41755;SDS011;27435;48.480;9.258;2023-01-20T04:21:48;14.00;;;6.83;;
41755;SDS011;27435;48.480;9.258;2023-01-20T04:26:53;13.43;;;6.20;;
41755;SDS011;27435;48.480;9.258;2023-01-20T04:29:19;15.77;;;7.50;;
41755;SDS011;27435;48.480;9.258;2023-01-20T04:31:44;11.77;;;5.17;;
41755;SDS011;27435;48.480;9.258;2023-01-20T04:34:13;8.90;;;5.30;;
41755;SDS011;27435;48.480;9.258;2023-01-20T04:36:39;12.80;;;5.50;;
41755;SDS011;27435;48.480;9.258;2023-01-20T04:39:05;11.20;;;5.40;;
41755;SDS011;27435;48.480;9.258;2023-01-20T04:41:31;9.90;;;5.17;;
41755;SDS011;27435;48.480;9.258;2023-01-20T04:43:57;18.23;;;5.50;;
41755;SDS011;27435;48.480;9.258;2023-01-20T04:46:22;11.07;;;5.27;;
41755;SDS011;27435;48.480;9.258;2023-01-20T04:48:48;13.27;;;5.23;;
41755;SDS011;27435;48.480;9.258;2023-01-20T04:51:13;10.40;;;5.50;;
41755;SDS011;27435;48.480;9.258;2023-01-20T04:53:39;16.90;;;7.80;;
41755;SDS011;27435;48.480;9.258;2023-01-20T04:56:11;15.63;;;7.77;;
41755;SDS011;27435;48.480;9.258;2023-01-20T04:58:38;15.77;;;8.43;;
41755;SDS011;27435;48.480;9.258;2023-01-20T05:01:04;15.63;;;7.33;;
41755;SDS011;27435;48.480;9.258;2023-01-20T05:03:30;14.13;;;7.10;;
41755;SDS011;27435;48.480;9.258;2023-01-20T05:05:55;13.67;;;7.40;;
41755;SDS011;27435;48.480;9.258;2023-01-20T05:08:21;17.13;;;7.23;;
41755;SDS011;27435;48.480;9.258;2023-01-20T05:10:47;12.73;;;6.53;;
41755;SDS011;27435;48.480;9.258;2023-01-20T05:13:12;12.50;;;6.63;;
41755;SDS011;27435;48.480;9.258;2023-01-20T05:15:38;13.10;;;6.57;;
41755;SDS011;27435;48.480;9.258;2023-01-20T05:18:04;14.67;;;7.10;;
41755;SDS011;27435;48.480;9.258;2023-01-20T05:20:30;14.10;;;7.40;;
41755;SDS011;27435;48.480;9.258;2023-01-20T05:22:56;15.17;;;7.13;;
41755;SDS011;27435;48.480;9.258;2023-01-20T05:25:22;11.50;;;6.10;;
41755;SDS011;27435;48.480;9.258;2023-01-20T05:27:48;14.10;;;6.63;;
41755;SDS011;27435;48.480;9.258;2023-01-20T05:30:14;16.67;;;7.13;;
41755;SDS011;27435;48.480;9.258;2023-01-20T05:32:39;17.37;;;7.50;;
41755;SDS011;27435;48.480;9.258;2023-01-20T05:35:05;30.60;;;14.23;;
41755;SDS011;27435;48.480;9.258;2023-01-20T05:37:32;16.33;;;7.90;;
41755;SDS011;27435;48.480;9.258;2023-01-20T05:39:57;18.77;;;8.93;;
41755;SDS011;27435;48.480;9.258;2023-01-20T05:42:23;13.50;;;7.97;;
41755;SDS011;27435;48.480;9.258;2023-01-20T05:44:49;18.13;;;8.17;;
41755;SDS011;27435;48.480;9.258;2023-01-20T05:47:14;17.93;;;9.37;;
41755;SDS011;27435;48.480;9.258;2023-01-20T05:49:40;17.47;;;8.43;;
41755;SDS011;27435;48.480;9.258;2023-01-20T05:52:06;22.60;;;11.83;;
41755;SDS011;27435;48.480;9.258;2023-01-20T05:54:31;18.70;;;8.80;;
41755;SDS011;27435;48.480;9.258;2023-01-20T05:56:57;14.33;;;8.57;;
41755;SDS011;27435;48.480;9.258;2023-01-20T05:59:23;15.47;;;8.33;;
41755;SDS011;27435;48.480;9.258;2023-01-20T06:01:49;15.63;;;9.17;;
41755;SDS011;27435;48.480;9.258;2023-01-20T06:04:15;14.83;;;8.23;;
41755;SDS011;27435;48.480;9.258;2023-01-20T06:06:40;16.43;;;9.10;;
41755;SDS011;27435;48.480;9.258;2023-01-20T06:09:06;16.60;;;8.90;;
41755;SDS011;27435;48.480;9.258;2023-01-20T06:11:33;20.47;;;10.03;;
41755;SDS011;27435;48.480;9.258;2023-01-20T06:13:59;17.50;;;10.03;;
41755;SDS011;27435;48.480;9.258;2023-01-20T06:16:24;20.67;;;10.53;;
41755;SDS011;27435;48.480;9.258;2023-01-20T06:18:50;22.63;;;10.00;;
41755;SDS011;27435;48.480;9.258;2023-01-20T06:21:16;17.43;;;9.33;;
41755;SDS011;27435;48.480;9.258;2023-01-20T06:23:41;17.57;;;8.70;;
41755;SDS011;27435;48.480;9.258;2023-01-20T06:26:08;17.80;;;9.43;;
41755;SDS011;27435;48.480;9.258;2023-01-20T06:28:35;14.70;;;7.93;;
41755;SDS011;27435;48.480;9.258;2023-01-20T06:31:02;19.77;;;9.70;;
41755;SDS011;27435;48.480;9.258;2023-01-20T06:33:36;36.90;;;14.93;;
41755;SDS011;27435;48.480;9.258;2023-01-20T06:36:02;46.87;;;19.23;;
41755;SDS011;27435;48.480;9.258;2023-01-20T06:38:29;41.70;;;17.03;;
41755;SDS011;27435;48.480;9.258;2023-01-20T06:40:59;38.80;;;16.53;;
41755;SDS011;27435;48.480;9.258;2023-01-20T06:43:30;31.07;;;13.87;;
41755;SDS011;27435;48.480;9.258;2023-01-20T06:46:01;20.30;;;10.87;;
41755;SDS011;27435;48.480;9.258;2023-01-20T06:48:28;19.07;;;9.73;;
41755;SDS011;27435;48.480;9.258;2023-01-20T06:50:59;20.73;;;10.00;;
41755;SDS011;27435;48.480;9.258;2023-01-20T06:53:25;17.80;;;9.43;;
41755;SDS011;27435;48.480;9.258;2023-01-20T06:55:54;17.53;;;9.70;;
41755;SDS011;27435;48.480;9.258;2023-01-20T06:58:24;22.43;;;11.73;;
41755;SDS011;27435;48.480;9.258;2023-01-20T07:00:51;30.63;;;12.67;;
41755;SDS011;27435;48.480;9.258;2023-01-20T07:03:18;21.90;;;11.60;;
41755;SDS011;27435;48.480;9.258;2023-01-20T07:05:59;18.30;;;9.97;;
41755;SDS011;27435;48.480;9.258;2023-01-20T07:08:27;20.53;;;10.43;;
41755;SDS011;27435;48.480;9.258;2023-01-20T07:10:53;19.97;;;9.53;;
41755;SDS011;27435;48.480;9.258;2023-01-20T07:13:19;20.00;;;10.23;;
41755;SDS011;27435;48.480;9.258;2023-01-20T07:15:45;30.47;;;12.50;;
41755;SDS011;27435;48.480;9.258;2023-01-20T07:18:10;23.63;;;11.23;;
41755;SDS011;27435;48.480;9.258;2023-01-20T07:20:36;16.77;;;10.30;;
41755;SDS011;27435;48.480;9.258;2023-01-20T07:23:02;19.73;;;10.40;;
41755;SDS011;27435;48.480;9.258;2023-01-20T07:25:28;17.97;;;10.37;;
41755;SDS011;27435;48.480;9.258;2023-01-20T07:27:54;19.20;;;9.50;;
41755;SDS011;27435;48.480;9.258;2023-01-20T07:30:21;23.27;;;10.97;;
41755;SDS011;27435;48.480;9.258;2023-01-20T07:32:47;23.33;;;11.13;;
41755;SDS011;27435;48.480;9.258;2023-01-20T07:35:13;18.83;;;10.37;;
41755;SDS011;27435;48.480;9.258;2023-01-20T07:37:39;21.20;;;10.57;;
41755;SDS011;27435;48.480;9.258;2023-01-20T07:40:05;23.40;;;11.53;;
41755;SDS011;27435;48.480;9.258;2023-01-20T07:42:31;22.90;;;12.37;;
41755;SDS011;27435;48.480;9.258;2023-01-20T07:44:57;26.30;;;12.93;;
41755;SDS011;27435;48.480;9.258;2023-01-20T07:47:23;27.03;;;14.07;;
41755;SDS011;27435;48.480;9.258;2023-01-20T07:49:48;30.77;;;14.53;;
41755;SDS011;27435;48.480;9.258;2023-01-20T07:52:14;39.77;;;16.40;;
41755;SDS011;27435;48.480;9.258;2023-01-20T07:54:39;29.83;;;15.07;;
41755;SDS011;27435;48.480;9.258;2023-01-20T07:57:05;25.43;;;13.07;;
41755;SDS011;27435;48.480;9.258;2023-01-20T07:59:32;24.67;;;12.57;;
41755;SDS011;27435;48.480;9.258;2023-01-20T08:01:58;31.90;;;13.07;;
41755;SDS011;27435;48.480;9.258;2023-01-20T08:04:23;32.33;;;15.67;;
41755;SDS011;27435;48.480;9.258;2023-01-20T08:06:49;32.03;;;14.90;;
41755;SDS011;27435;48.480;9.258;2023-01-20T08:09:15;37.90;;;17.33;;
41755;SDS011;27435;48.480;9.258;2023-01-20T08:11:40;26.23;;;14.77;;
41755;SDS011;27435;48.480;9.258;2023-01-20T08:14:06;29.27;;;15.03;;
41755;SDS011;27435;48.480;9.258;2023-01-20T08:16:32;29.83;;;16.60;;
41755;SDS011;27435;48.480;9.258;2023-01-20T08:18:57;31.67;;;15.70;;
41755;SDS011;27435;48.480;9.258;2023-01-20T08:21:24;29.13;;;15.40;;
41755;SDS011;27435;48.480;9.258;2023-01-20T08:23:53;34.37;;;15.70;;
41755;SDS011;27435;48.480;9.258;2023-01-20T08:26:20;35.10;;;15.63;;
41755;SDS011;27435;48.480;9.258;2023-01-20T08:28:48;28.53;;;14.93;;
41755;SDS011;27435;48.480;9.258;2023-01-20T08:31:15;30.13;;;14.03;;
41755;SDS011;27435;48.480;9.258;2023-01-20T08:33:43;29.77;;;15.60;;
41755;SDS011;27435;48.480;9.258;2023-01-20T08:38:37;27.23;;;15.50;;
41755;SDS011;27435;48.480;9.258;2023-01-20T08:41:14;30.93;;;15.30;;
41755;SDS011;27435;48.480;9.258;2023-01-20T08:43:41;22.87;;;13.70;;
41755;SDS011;27435;48.480;9.258;2023-01-20T08:46:11;29.73;;;15.47;;
41755;SDS011;27435;48.480;9.258;2023-01-20T08:48:38;28.80;;;14.90;;
41755;SDS011;27435;48.480;9.258;2023-01-20T08:51:06;34.07;;;15.77;;
41755;SDS011;27435;48.480;9.258;2023-01-20T08:53:40;27.70;;;16.08;;
41755;SDS011;27435;48.480;9.258;2023-01-20T08:56:07;28.90;;;15.47;;
41755;SDS011;27435;48.480;9.258;2023-01-20T08:58:33;29.17;;;16.37;;
41755;SDS011;27435;48.480;9.258;2023-01-20T09:00:59;25.10;;;14.70;;
41755;SDS011;27435;48.480;9.258;2023-01-20T09:03:25;31.50;;;15.83;;
41755;SDS011;27435;48.480;9.258;2023-01-20T09:05:51;26.13;;;14.53;;
41755;SDS011;27435;48.480;9.258;2023-01-20T09:08:17;26.20;;;14.40;;
41755;SDS011;27435;48.480;9.258;2023-01-20T09:10:44;26.30;;;14.53;;
41755;SDS011;27435;48.480;9.258;2023-01-20T09:13:10;22.97;;;12.57;;
41755;SDS011;27435;48.480;9.258;2023-01-20T09:15:35;25.47;;;13.57;;
41755;SDS011;27435;48.480;9.258;2023-01-20T09:18:01;22.50;;;13.50;;
41755;SDS011;27435;48.480;9.258;2023-01-20T09:20:27;27.87;;;14.80;;
41755;SDS011;27435;48.480;9.258;2023-01-20T09:22:54;24.40;;;14.40;;
41755;SDS011;27435;48.480;9.258;2023-01-20T09:25:20;21.00;;;11.67;;
41755;SDS011;27435;48.480;9.258;2023-01-20T09:27:46;25.60;;;13.70;;
41755;SDS011;27435;48.480;9.258;2023-01-20T09:30:12;20.43;;;11.30;;
41755;SDS011;27435;48.480;9.258;2023-01-20T09:32:38;17.47;;;11.50;;
41755;SDS011;27435;48.480;9.258;2023-01-20T09:35:03;20.43;;;11.53;;
41755;SDS011;27435;48.480;9.258;2023-01-20T09:37:29;23.97;;;12.23;;
41755;SDS011;27435;48.480;9.258;2023-01-20T09:40:17;23.53;;;12.77;;
41755;SDS011;27435;48.480;9.258;2023-01-20T09:44:09;19.37;;;11.40;;
41755;SDS011;27435;48.480;9.258;2023-01-20T09:49:07;18.47;;;10.97;;
41755;SDS011;27435;48.480;9.258;2023-01-20T09:52:12;15.10;;;9.30;;
41755;SDS011;27435;48.480;9.258;2023-01-20T09:55:07;18.90;;;11.97;;
41755;SDS011;27435;48.480;9.258;2023-01-20T09:57:38;18.37;;;10.93;;
41755;SDS011;27435;48.480;9.258;2023-01-20T10:00:07;19.93;;;11.70;;
41755;SDS011;27435;48.480;9.258;2023-01-20T10:02:41;23.40;;;11.00;;
41755;SDS011;27435;48.480;9.258;2023-01-20T10:05:13;18.47;;;10.50;;
41755;SDS011;27435;48.480;9.258;2023-01-20T10:07:48;22.33;;;11.70;;
41755;SDS011;27435;48.480;9.258;2023-01-20T10:10:50;15.70;;;9.87;;
41755;SDS011;27435;48.480;9.258;2023-01-20T10:13:31;23.17;;;10.63;;
41755;SDS011;27435;48.480;9.258;2023-01-20T10:16:04;26.10;;;13.17;;
41755;SDS011;27435;48.480;9.258;2023-01-20T10:18:45;17.40;;;10.40;;
41755;SDS011;27435;48.480;9.258;2023-01-20T10:23:51;18.30;;;9.90;;
41755;SDS011;27435;48.480;9.258;2023-01-20T10:26:26;18.73;;;10.33;;
41755;SDS011;27435;48.480;9.258;2023-01-20T10:29:02;20.10;;;10.97;;
41755;SDS011;27435;48.480;9.258;2023-01-20T10:31:34;18.03;;;10.57;;
41755;SDS011;27435;48.480;9.258;2023-01-20T10:36:36;18.70;;;11.03;;
41755;SDS011;27435;48.480;9.258;2023-01-20T10:41:54;21.77;;;11.17;;
41755;SDS011;27435;48.480;9.258;2023-01-20T10:44:29;21.57;;;11.10;;
41755;SDS011;27435;48.480;9.258;2023-01-20T10:54:58;24.43;;;10.27;;
41755;SDS011;27435;48.480;9.258;2023-01-20T10:57:33;17.30;;;9.93;;
41755;SDS011;27435;48.480;9.258;2023-01-20T11:00:01;23.60;;;11.13;;
41755;SDS011;27435;48.480;9.258;2023-01-20T11:02:32;19.00;;;10.17;;
41755;SDS011;27435;48.480;9.258;2023-01-20T11:04:59;18.27;;;9.93;;
41755;SDS011;27435;48.480;9.258;2023-01-20T11:07:28;19.90;;;10.33;;
41755;SDS011;27435;48.480;9.258;2023-01-20T11:09:57;20.23;;;10.87;;
41755;SDS011;27435;48.480;9.258;2023-01-20T11:12:34;21.40;;;10.70;;
41755;SDS011;27435;48.480;9.258;2023-01-20T11:15:06;15.93;;;9.07;;
41755;SDS011;27435;48.480;9.258;2023-01-20T11:17:44;18.80;;;10.13;;
41755;SDS011;27435;48.480;9.258;2023-01-20T11:20:13;20.20;;;9.20;;
41755;SDS011;27435;48.480;9.258;2023-01-20T11:22:47;18.83;;;7.60;;
41755;SDS011;27435;48.480;9.258;2023-01-20T11:25:24;15.33;;;9.00;;
41755;SDS011;27435;48.480;9.258;2023-01-20T11:27:51;12.30;;;6.33;;
41755;SDS011;27435;48.480;9.258;2023-01-20T11:30:27;14.00;;;7.37;;
41755;SDS011;27435;48.480;9.258;2023-01-20T11:35:32;11.93;;;5.97;;
41755;SDS011;27435;48.480;9.258;2023-01-20T11:37:59;9.93;;;6.10;;
41755;SDS011;27435;48.480;9.258;2023-01-20T11:40:50;15.57;;;8.20;;
41755;SDS011;27435;48.480;9.258;2023-01-20T11:43:28;15.80;;;7.00;;
41755;SDS011;27435;48.480;9.258;2023-01-20T11:46:08;11.90;;;6.50;;
41755;SDS011;27435;48.480;9.258;2023-01-20T11:48:35;10.07;;;5.77;;
41755;SDS011;27435;48.480;9.258;2023-01-20T11:51:02;9.30;;;5.07;;
41755;SDS011;27435;48.480;9.258;2023-01-20T11:53:29;10.00;;;5.20;;
41755;SDS011;27435;48.480;9.258;2023-01-20T11:58:24;15.40;;;6.60;;
41755;SDS011;27435;48.480;9.258;2023-01-20T12:00:59;9.20;;;5.43;;
41755;SDS011;27435;48.480;9.258;2023-01-20T12:11:27;9.33;;;4.40;;
41755;SDS011;27435;48.480;9.258;2023-01-20T12:20:25;10.97;;;4.23;;
41755;SDS011;27435;48.480;9.258;2023-01-20T12:25:51;8.10;;;4.40;;
41755;SDS011;27435;48.480;9.258;2023-01-20T12:31:26;10.17;;;4.83;;
41755;SDS011;27435;48.480;9.258;2023-01-20T12:42:08;13.53;;;5.07;;
41755;SDS011;27435;48.480;9.258;2023-01-20T12:45:11;14.37;;;4.60;;
41755;SDS011;27435;48.480;9.258;2023-01-20T12:48:14;9.67;;;5.00;;
41755;SDS011;27435;48.480;9.258;2023-01-20T13:05:11;15.03;;;7.47;;
41755;SDS011;27435;48.480;9.258;2023-01-20T13:08:04;15.40;;;7.63;;
41755;SDS011;27435;48.480;9.258;2023-01-20T13:10:55;12.17;;;5.80;;
41755;SDS011;27435;48.480;9.258;2023-01-20T13:13:34;13.37;;;6.10;;
41755;SDS011;27435;48.480;9.258;2023-01-20T13:19:07;11.53;;;5.30;;
41755;SDS011;27435;48.480;9.258;2023-01-20T13:21:40;11.70;;;4.57;;
41755;SDS011;27435;48.480;9.258;2023-01-20T13:24:11;7.63;;;4.20;;
41755;SDS011;27435;48.480;9.258;2023-01-20T13:26:43;9.50;;;4.70;;
41755;SDS011;27435;48.480;9.258;2023-01-20T13:29:22;8.00;;;4.57;;
41755;SDS011;27435;48.480;9.258;2023-01-20T13:32:24;8.70;;;4.37;;
41755;SDS011;27435;48.480;9.258;2023-01-20T13:35:52;11.23;;;5.13;;
41755;SDS011;27435;48.480;9.258;2023-01-20T13:45:48;10.03;;;3.70;;
41755;SDS011;27435;48.480;9.258;2023-01-20T13:48:30;10.97;;;4.27;;
41755;SDS011;27435;48.480;9.258;2023-01-20T13:53:53;6.00;;;3.28;;
41755;SDS011;27435;48.480;9.258;2023-01-20T13:59:53;9.98;;;3.00;;
41755;SDS011;27435;48.480;9.258;2023-01-20T14:02:21;7.03;;;2.57;;
41755;SDS011;27435;48.480;9.258;2023-01-20T14:04:48;3.47;;;2.20;;
41755;SDS011;27435;48.480;9.258;2023-01-20T14:07:24;7.83;;;2.50;;
41755;SDS011;27435;48.480;9.258;2023-01-20T14:09:54;5.60;;;2.57;;
41755;SDS011;27435;48.480;9.258;2023-01-20T14:12:21;8.03;;;2.87;;
41755;SDS011;27435;48.480;9.258;2023-01-20T14:14:47;5.90;;;2.70;;
41755;SDS011;27435;48.480;9.258;2023-01-20T14:17:16;5.77;;;3.57;;
41755;SDS011;27435;48.480;9.258;2023-01-20T14:19:48;5.03;;;3.07;;
41755;SDS011;27435;48.480;9.258;2023-01-20T14:22:28;7.40;;;2.60;;
41755;SDS011;27435;48.480;9.258;2023-01-20T14:24:56;5.90;;;3.17;;
41755;SDS011;27435;48.480;9.258;2023-01-20T14:27:30;7.40;;;3.63;;
41755;SDS011;27435;48.480;9.258;2023-01-20T14:30:13;8.90;;;3.00;;
41755;SDS011;27435;48.480;9.258;2023-01-20T14:32:50;6.63;;;3.13;;
41755;SDS011;27435;48.480;9.258;2023-01-20T14:35:25;7.60;;;3.30;;
41755;SDS011;27435;48.480;9.258;2023-01-20T14:37:55;8.17;;;2.90;;
41755;SDS011;27435;48.480;9.258;2023-01-20T14:40:25;7.43;;;4.20;;
41755;SDS011;27435;48.480;9.258;2023-01-20T14:43:11;12.87;;;5.67;;
41755;SDS011;27435;48.480;9.258;2023-01-20T14:45:47;27.83;;;12.50;;
41755;SDS011;27435;48.480;9.258;2023-01-20T14:48:15;18.70;;;6.03;;
41755;SDS011;27435;48.480;9.258;2023-01-20T14:50:42;10.00;;;2.90;;
41755;SDS011;27435;48.480;9.258;2023-01-20T14:53:12;9.37;;;4.07;;
41755;SDS011;27435;48.480;9.258;2023-01-20T14:55:39;7.27;;;3.47;;
41755;SDS011;27435;48.480;9.258;2023-01-20T14:58:15;4.77;;;2.50;;
41755;SDS011;27435;48.480;9.258;2023-01-20T15:00:42;4.17;;;2.23;;
41755;SDS011;27435;48.480;9.258;2023-01-20T15:05:40;7.77;;;2.93;;
41755;SDS011;27435;48.480;9.258;2023-01-20T15:08:24;13.97;;;3.90;;
41755;SDS011;27435;48.480;9.258;2023-01-20T15:16:27;7.20;;;3.33;;
41755;SDS011;27435;48.480;9.258;2023-01-20T15:21:43;7.80;;;3.20;;
41755;SDS011;27435;48.480;9.258;2023-01-20T15:26:44;4.93;;;2.90;;
41755;SDS011;27435;48.480;9.258;2023-01-20T15:29:19;5.70;;;3.00;;
41755;SDS011;27435;48.480;9.258;2023-01-20T15:31:51;6.67;;;3.03;;
41755;SDS011;27435;48.480;9.258;2023-01-20T15:34:19;8.77;;;3.43;;
41755;SDS011;27435;48.480;9.258;2023-01-20T15:36:45;7.50;;;3.07;;
41755;SDS011;27435;48.480;9.258;2023-01-20T15:39:22;7.60;;;2.93;;
41755;SDS011;27435;48.480;9.258;2023-01-20T15:41:52;5.73;;;3.30;;
41755;SDS011;27435;48.480;9.258;2023-01-20T15:44:18;6.53;;;2.83;;
41755;SDS011;27435;48.480;9.258;2023-01-20T15:46:44;8.03;;;3.50;;
41755;SDS011;27435;48.480;9.258;2023-01-20T15:49:10;6.80;;;3.30;;
41755;SDS011;27435;48.480;9.258;2023-01-20T15:51:36;8.73;;;3.70;;
41755;SDS011;27435;48.480;9.258;2023-01-20T15:54:03;11.67;;;3.63;;
41755;SDS011;27435;48.480;9.258;2023-01-20T15:56:31;7.37;;;3.70;;
41755;SDS011;27435;48.480;9.258;2023-01-20T15:58:58;6.10;;;3.13;;
41755;SDS011;27435;48.480;9.258;2023-01-20T16:01:25;8.03;;;3.70;;
41755;SDS011;27435;48.480;9.258;2023-01-20T16:03:52;13.70;;;3.90;;
41755;SDS011;27435;48.480;9.258;2023-01-20T16:06:20;10.30;;;4.83;;
41755;SDS011;27435;48.480;9.258;2023-01-20T16:08:51;12.87;;;5.77;;
41755;SDS011;27435;48.480;9.258;2023-01-20T16:11:18;17.63;;;5.80;;
41755;SDS011;27435;48.480;9.258;2023-01-20T16:13:44;14.13;;;7.37;;
41755;SDS011;27435;48.480;9.258;2023-01-20T16:18:42;10.70;;;6.50;;
41755;SDS011;27435;48.480;9.258;2023-01-20T16:21:12;9.17;;;4.87;;
41755;SDS011;27435;48.480;9.258;2023-01-20T16:23:38;17.77;;;7.87;;
41755;SDS011;27435;48.480;9.258;2023-01-20T16:26:24;17.17;;;7.57;;
41755;SDS011;27435;48.480;9.258;2023-01-20T16:28:52;11.60;;;6.13;;
41755;SDS011;27435;48.480;9.258;2023-01-20T16:31:19;16.07;;;6.07;;
41755;SDS011;27435;48.480;9.258;2023-01-20T16:33:45;9.77;;;5.60;;
41755;SDS011;27435;48.480;9.258;2023-01-20T16:36:12;9.93;;;4.07;;
41755;SDS011;27435;48.480;9.258;2023-01-20T16:38:39;11.20;;;5.27;;
41755;SDS011;27435;48.480;9.258;2023-01-20T16:41:05;22.10;;;7.53;;
41755;SDS011;27435;48.480;9.258;2023-01-20T16:43:39;29.80;;;12.30;;
41755;SDS011;27435;48.480;9.258;2023-01-20T16:46:08;19.20;;;8.37;;
41755;SDS011;27435;48.480;9.258;2023-01-20T16:48:39;18.87;;;8.70;;
41755;SDS011;27435;48.480;9.258;2023-01-20T16:51:05;40.37;;;16.80;;
41755;SDS011;27435;48.480;9.258;2023-01-20T16:53:31;41.97;;;18.70;;
41755;SDS011;27435;48.480;9.258;2023-01-20T16:55:57;43.83;;;16.40;;
41755;SDS011;27435;48.480;9.258;2023-01-20T16:58:23;84.70;;;25.73;;
41755;SDS011;27435;48.480;9.258;2023-01-20T17:00:49;37.30;;;21.43;;
41755;SDS011;27435;48.480;9.258;2023-01-20T17:03:14;13.57;;;6.70;;
41755;SDS011;27435;48.480;9.258;2023-01-20T17:05:40;15.97;;;5.50;;